createdAt,value
2023-02-26T00:01:47.671Z,10.30
2023-02-26T00:04:16.120Z,10.60
2023-02-26T00:06:56.810Z,9.60
2023-02-26T00:09:28.195Z,9.40
2023-02-26T00:11:57.746Z,9.40
2023-02-26T00:14:27.023Z,17.10
2023-02-26T00:17:15.291Z,10.00
2023-02-26T00:19:43.921Z,9.00
2023-02-26T00:22:12.391Z,6.20
2023-02-26T00:24:40.580Z,4.20
2023-02-26T00:27:12.126Z,4.20
2023-02-26T00:29:40.633Z,5.90
2023-02-26T00:32:09.333Z,9.40
2023-02-26T00:34:37.636Z,11.40
2023-02-26T00:37:23.210Z,10.10
2023-02-26T00:40:29.034Z,5.50
2023-02-26T00:42:57.653Z,5.00
2023-02-26T00:45:26.753Z,6.60
2023-02-26T00:48:35.898Z,4.40
2023-02-26T00:51:32.836Z,4.20
2023-02-26T00:54:21.721Z,2.70
2023-02-26T00:56:53.660Z,9.10
2023-02-26T00:59:22.533Z,12.50
2023-02-26T01:01:52.210Z,9.80
2023-02-26T01:04:23.196Z,5.40
2023-02-26T01:06:56.629Z,3.90
2023-02-26T01:09:27.969Z,5.90
2023-02-26T01:12:01.739Z,3.80
2023-02-26T01:14:32.353Z,3.10
2023-02-26T01:17:15.400Z,3.10
2023-02-26T01:19:43.621Z,3.30
2023-02-26T01:22:21.379Z,2.90
2023-02-26T01:24:56.511Z,3.80
2023-02-26T01:27:25.132Z,3.00
2023-02-26T01:29:53.549Z,3.60
2023-02-26T01:32:45.358Z,2.00
2023-02-26T01:35:32.361Z,2.20
2023-02-26T01:38:28.409Z,4.20
2023-02-26T01:41:03.177Z,4.00
2023-02-26T01:43:51.714Z,4.10
2023-02-26T01:46:36.485Z,5.20
2023-02-26T01:49:08.992Z,4.70
2023-02-26T01:51:50.557Z,4.90
2023-02-26T01:54:25.292Z,5.10
2023-02-26T01:56:59.409Z,4.60
2023-02-26T01:59:27.673Z,4.60
2023-02-26T02:01:58.507Z,4.80
2023-02-26T02:04:27.125Z,2.70
2023-02-26T02:06:55.806Z,2.20
2023-02-26T02:09:23.927Z,3.50
2023-02-26T02:12:24.230Z,3.90
2023-02-26T02:15:17.864Z,3.40
2023-02-26T02:17:59.963Z,3.60
2023-02-26T02:20:43.495Z,4.00
2023-02-26T02:23:20.777Z,4.80
2023-02-26T02:26:07.599Z,5.00
2023-02-26T02:28:54.666Z,4.40
2023-02-26T02:31:41.462Z,3.80
2023-02-26T02:34:48.179Z,3.20
2023-02-26T02:37:21.025Z,2.30
2023-02-26T02:40:00.320Z,4.10
2023-02-26T02:42:52.495Z,2.50
2023-02-26T02:45:36.421Z,4.70
2023-02-26T02:48:19.022Z,5.40
2023-02-26T02:51:01.662Z,5.40
2023-02-26T02:53:37.218Z,5.40
2023-02-26T02:56:13.381Z,5.10
2023-02-26T02:58:54.053Z,5.00
2023-02-26T03:01:26.614Z,4.90
2023-02-26T03:04:11.900Z,3.90
2023-02-26T03:06:40.133Z,6.20
2023-02-26T03:09:10.334Z,6.40
2023-02-26T03:11:42.847Z,6.30
2023-02-26T03:14:13.364Z,5.70
2023-02-26T03:17:16.987Z,6.00
2023-02-26T03:19:55.279Z,4.40
2023-02-26T03:22:32.807Z,3.60
2023-02-26T03:25:11.155Z,3.40
2023-02-26T03:27:50.314Z,6.00
2023-02-26T03:30:35.368Z,4.30
2023-02-26T03:33:25.510Z,6.40
2023-02-26T03:36:05.198Z,6.00
2023-02-26T03:38:44.081Z,4.60
2023-02-26T03:41:17.568Z,3.90
2023-02-26T03:43:59.520Z,4.50
2023-02-26T03:46:34.155Z,5.00
2023-02-26T03:49:08.993Z,4.40
2023-02-26T03:51:40.905Z,4.30
2023-02-26T03:54:52.230Z,3.30
2023-02-26T03:57:50.095Z,4.40
2023-02-26T04:00:30.020Z,3.20
2023-02-26T04:03:25.656Z,3.10
2023-02-26T04:05:54.873Z,4.20
2023-02-26T04:08:24.603Z,3.70
2023-02-26T04:10:57.489Z,4.20
2023-02-26T04:13:26.196Z,5.30
2023-02-26T04:15:54.349Z,3.70
2023-02-26T04:18:22.747Z,3.40
2023-02-26T04:20:51.182Z,3.40
2023-02-26T04:23:19.567Z,5.40
2023-02-26T04:25:47.737Z,4.50
2023-02-26T04:28:17.722Z,4.30
2023-02-26T04:30:46.005Z,3.90
2023-02-26T04:33:16.174Z,3.20
2023-02-26T04:35:44.957Z,2.90
2023-02-26T04:38:13.167Z,6.60
2023-02-26T04:40:41.438Z,10.60
2023-02-26T04:43:11.440Z,7.90
2023-02-26T04:45:47.125Z,11.40
2023-02-26T04:48:17.058Z,3.60
2023-02-26T04:50:46.311Z,4.00
2023-02-26T04:53:14.900Z,6.10
2023-02-26T04:55:43.319Z,3.90
2023-02-26T04:58:11.444Z,3.90
2023-02-26T05:00:40.345Z,4.60
2023-02-26T05:03:10.080Z,3.90
2023-02-26T05:05:38.262Z,4.70
2023-02-26T05:08:07.770Z,2.80
2023-02-26T05:11:01.191Z,1.80
2023-02-26T05:13:29.387Z,3.50
2023-02-26T05:15:57.748Z,3.10
2023-02-26T05:18:25.962Z,2.00
2023-02-26T05:20:56.002Z,13.00
2023-02-26T05:23:24.229Z,34.40
2023-02-26T05:25:55.793Z,15.00
2023-02-26T05:28:27.393Z,10.60
2023-02-26T05:30:58.013Z,24.60
2023-02-26T05:33:27.064Z,18.00
2023-02-26T05:35:55.372Z,14.30
2023-02-26T05:38:23.994Z,9.10
2023-02-26T05:40:56.747Z,6.20
2023-02-26T05:45:53.416Z,5.40
2023-02-26T05:48:22.593Z,5.90
2023-02-26T05:50:51.949Z,6.10
2023-02-26T05:53:20.406Z,5.40
2023-02-26T05:55:48.652Z,5.80
2023-02-26T05:58:16.798Z,5.60
2023-02-26T06:00:45.339Z,5.30
2023-02-26T06:03:14.567Z,9.80
2023-02-26T06:05:42.811Z,14.30
2023-02-26T06:08:12.277Z,16.00
2023-02-26T06:10:48.593Z,15.00
2023-02-26T06:13:16.996Z,7.60
2023-02-26T06:15:45.079Z,9.50
2023-02-26T06:18:13.590Z,8.80
2023-02-26T06:20:41.822Z,4.90
2023-02-26T06:23:10.034Z,9.30
2023-02-26T06:25:38.224Z,12.10
2023-02-26T06:28:06.471Z,4.40
2023-02-26T06:30:38.402Z,4.60
2023-02-26T06:33:06.724Z,6.40
2023-02-26T06:35:35.073Z,6.40
2023-02-26T06:38:03.819Z,8.10
2023-02-26T06:40:32.037Z,13.80
2023-02-26T06:43:00.278Z,16.20
2023-02-26T06:45:28.747Z,18.80
2023-02-26T06:47:56.983Z,8.70
2023-02-26T06:50:25.221Z,15.30
2023-02-26T06:52:53.352Z,29.30
2023-02-26T06:55:22.170Z,32.20
2023-02-26T06:57:50.458Z,36.40
2023-02-26T07:00:18.960Z,20.40
2023-02-26T07:02:47.358Z,16.00
2023-02-26T07:05:15.760Z,14.30
2023-02-26T07:07:44.141Z,12.80
2023-02-26T07:10:13.198Z,16.20
2023-02-26T07:12:41.394Z,11.60
2023-02-26T07:15:10.058Z,13.30
2023-02-26T07:17:38.282Z,17.70
2023-02-26T07:20:10.311Z,18.90
2023-02-26T07:22:38.814Z,14.60
2023-02-26T07:25:08.532Z,14.20
2023-02-26T07:27:43.687Z,12.80
2023-02-26T07:30:13.938Z,12.50
2023-02-26T07:32:42.334Z,11.50
2023-02-26T07:35:11.104Z,17.60
2023-02-26T07:37:39.473Z,15.80
2023-02-26T07:40:14.399Z,11.50
2023-02-26T07:42:45.744Z,12.10
2023-02-26T07:45:13.978Z,9.40
2023-02-26T07:47:42.139Z,14.20
2023-02-26T07:50:11.202Z,11.50
2023-02-26T07:52:40.379Z,17.80
2023-02-26T07:55:10.227Z,19.30
2023-02-26T07:57:39.232Z,24.80
2023-02-26T08:00:09.787Z,21.90
2023-02-26T08:02:41.612Z,18.90
2023-02-26T08:05:10.094Z,9.20
2023-02-26T08:07:38.291Z,16.60
2023-02-26T08:10:07.039Z,15.00
2023-02-26T08:12:36.728Z,16.30
2023-02-26T08:15:06.338Z,17.90
2023-02-26T08:17:34.726Z,23.20
2023-02-26T08:20:05.303Z,19.30
2023-02-26T08:22:33.974Z,18.30
2023-02-26T08:25:02.398Z,23.20
2023-02-26T08:27:30.574Z,20.10
2023-02-26T08:29:58.783Z,21.30
2023-02-26T08:32:28.364Z,21.40
2023-02-26T08:34:56.946Z,20.70
2023-02-26T08:37:25.340Z,19.90
2023-02-26T08:39:54.485Z,20.40
2023-02-26T08:42:22.760Z,20.80
2023-02-26T08:44:50.994Z,14.00
2023-02-26T08:47:28.139Z,14.90
2023-02-26T08:49:57.349Z,14.40
2023-02-26T08:52:25.768Z,14.40
2023-02-26T08:54:53.978Z,13.60
2023-02-26T08:57:22.261Z,12.20
2023-02-26T08:59:50.573Z,16.00
2023-02-26T09:02:18.859Z,12.30
2023-02-26T09:04:47.589Z,13.30
2023-02-26T09:07:15.746Z,14.00
2023-02-26T09:09:43.809Z,14.30
2023-02-26T09:12:12.037Z,10.40
2023-02-26T09:14:40.125Z,7.60
2023-02-26T09:17:08.299Z,5.00
2023-02-26T09:19:36.469Z,7.10
2023-02-26T09:22:06.430Z,11.90
2023-02-26T09:24:34.880Z,8.00
2023-02-26T09:27:03.746Z,12.30
2023-02-26T09:29:32.030Z,7.00
2023-02-26T09:32:00.544Z,10.60
2023-02-26T09:34:28.878Z,8.40
2023-02-26T09:36:57.117Z,10.00
2023-02-26T09:39:25.405Z,11.80
2023-02-26T09:41:57.958Z,10.00
2023-02-26T09:44:30.939Z,9.00
2023-02-26T09:47:16.359Z,14.60
2023-02-26T09:50:19.506Z,14.40
2023-02-26T09:52:47.644Z,16.90
2023-02-26T09:55:26.912Z,16.20
2023-02-26T09:58:01.155Z,14.00
2023-02-26T10:00:46.981Z,13.60
2023-02-26T10:03:52.502Z,13.30
2023-02-26T10:06:34.293Z,14.90
2023-02-26T11:09:34.151Z,9.60
2023-02-26T11:12:11.626Z,10.20
2023-02-26T11:14:42.395Z,11.00
2023-02-26T11:17:14.984Z,12.70
2023-02-26T11:19:50.952Z,8.30
2023-02-26T11:22:19.581Z,12.20
2023-02-26T11:24:50.889Z,9.70
2023-02-26T11:27:35.432Z,7.00
2023-02-26T11:30:18.669Z,6.30
2023-02-26T11:32:52.039Z,6.80
2023-02-26T11:35:24.846Z,11.20
2023-02-26T11:40:33.540Z,9.80
2023-02-26T11:43:06.817Z,13.40
2023-02-26T11:45:39.632Z,9.70
2023-02-26T11:48:20.488Z,6.10
2023-02-26T11:50:53.039Z,8.40
2023-02-26T11:54:01.503Z,10.50
2023-02-26T11:56:36.906Z,6.20
2023-02-26T11:59:26.554Z,10.20
2023-02-26T12:02:14.377Z,12.00
2023-02-26T12:04:49.610Z,8.40
2023-02-26T12:07:18.392Z,8.70
2023-02-26T12:09:48.012Z,6.90
2023-02-26T12:12:51.447Z,9.40
2023-02-26T12:15:31.622Z,8.40
2023-02-26T12:18:41.158Z,8.00
2023-02-26T12:21:31.509Z,8.60
2023-02-26T12:24:09.311Z,13.40
2023-02-26T12:27:06.740Z,8.60
2023-02-26T12:29:50.942Z,9.00
2023-02-26T12:32:58.693Z,7.90
2023-02-26T12:35:41.437Z,14.10
2023-02-26T12:38:26.476Z,9.00
2023-02-26T12:41:35.392Z,6.50
2023-02-26T12:44:17.379Z,6.60
2023-02-26T12:46:54.258Z,6.30
2023-02-26T12:49:44.396Z,5.20
2023-02-26T12:52:34.912Z,6.10
2023-02-26T12:55:24.432Z,3.50
2023-02-26T12:58:10.861Z,3.30
2023-02-26T13:01:13.352Z,3.90
2023-02-26T13:04:03.158Z,4.50
2023-02-26T13:06:35.561Z,3.70
2023-02-26T13:09:23.253Z,5.10
2023-02-26T13:12:10.424Z,4.90
2023-02-26T13:14:51.232Z,5.40
2023-02-26T13:17:28.204Z,4.50
2023-02-26T13:20:14.074Z,6.10
2023-02-26T13:22:55.042Z,3.00
2023-02-26T13:25:36.940Z,4.50
2023-02-26T13:28:20.513Z,4.70
2023-02-26T13:30:54.789Z,6.80
2023-02-26T13:33:33.778Z,7.70
2023-02-26T13:36:04.944Z,4.10
2023-02-26T13:38:45.238Z,5.80
2023-02-26T13:41:27.606Z,3.60
2023-02-26T13:44:07.153Z,3.60
2023-02-26T13:47:12.094Z,3.10
2023-02-26T13:49:49.328Z,5.00
2023-02-26T13:52:30.517Z,3.10
2023-02-26T13:54:59.743Z,5.30
2023-02-26T13:57:43.179Z,3.80
2023-02-26T14:00:28.671Z,2.90
2023-02-26T14:03:12.797Z,2.40
2023-02-26T14:05:47.039Z,4.60
2023-02-26T14:08:39.759Z,5.10
2023-02-26T14:11:29.151Z,5.00
2023-02-26T14:14:16.655Z,5.20
2023-02-26T14:16:50.857Z,4.70
2023-02-26T14:19:28.068Z,5.40
2023-02-26T14:22:32.977Z,4.00
2023-02-26T14:25:25.764Z,3.10
2023-02-26T14:28:28.019Z,2.10
2023-02-26T14:31:11.720Z,4.30
2023-02-26T14:33:57.786Z,5.60
2023-02-26T14:36:38.045Z,4.70
2023-02-26T14:39:09.439Z,3.00
2023-02-26T14:42:10.907Z,3.20
2023-02-26T14:44:43.888Z,4.30
2023-02-26T14:47:14.243Z,5.60
2023-02-26T14:49:46.526Z,5.70
2023-02-26T14:52:51.865Z,5.30
2023-02-26T14:55:48.254Z,5.80
2023-02-26T14:58:27.980Z,3.30
2023-02-26T15:01:29.094Z,2.80
2023-02-26T15:04:27.178Z,3.10
2023-02-26T15:07:18.361Z,5.00
2023-02-26T15:10:10.030Z,5.00
2023-02-26T15:12:57.075Z,5.00
2023-02-26T15:15:35.445Z,4.60
2023-02-26T15:18:28.332Z,5.10
2023-02-26T15:21:34.702Z,4.90
2023-02-26T15:24:04.488Z,5.30
2023-02-26T15:26:50.430Z,4.90
2023-02-26T15:29:25.578Z,4.40
2023-02-26T15:32:23.271Z,6.30
2023-02-26T15:35:16.155Z,6.70
2023-02-26T15:37:50.314Z,4.20
2023-02-26T15:40:21.924Z,3.40
2023-02-26T15:42:54.574Z,3.30
2023-02-26T15:45:33.677Z,6.90
2023-02-26T15:48:08.839Z,2.70
2023-02-26T15:50:45.017Z,6.50
2023-02-26T15:53:19.497Z,5.20
2023-02-26T15:55:51.769Z,5.50
2023-02-26T15:58:34.531Z,3.80
2023-02-26T16:01:05.114Z,3.80
2023-02-26T16:03:43.634Z,4.30
2023-02-26T16:06:30.174Z,6.70
2023-02-26T16:09:00.606Z,5.80
2023-02-26T16:11:35.244Z,7.00
2023-02-26T16:14:05.566Z,5.90
2023-02-26T16:16:46.864Z,5.10
2023-02-26T16:19:18.797Z,4.80
2023-02-26T16:21:48.076Z,5.00
2023-02-26T16:24:23.117Z,5.30
2023-02-26T16:27:06.691Z,5.80
2023-02-26T16:29:37.794Z,7.40
2023-02-26T16:32:10.760Z,5.70
2023-02-26T16:34:52.552Z,4.60
2023-02-26T16:37:38.778Z,2.80
2023-02-26T16:40:28.324Z,6.10
2023-02-26T16:43:27.228Z,5.50
2023-02-26T16:45:57.558Z,5.70
2023-02-26T16:48:41.412Z,7.20
2023-02-26T16:51:24.377Z,7.00
2023-02-26T16:54:00.283Z,7.40
2023-02-26T16:56:32.129Z,6.90
2023-02-26T16:59:12.724Z,7.30
2023-02-26T17:01:58.235Z,5.50
2023-02-26T17:04:31.940Z,5.30
2023-02-26T17:07:00.492Z,3.90
2023-02-26T17:09:43.037Z,5.90
2023-02-26T17:12:16.065Z,7.10
2023-02-26T17:14:48.100Z,6.50
2023-02-26T17:17:16.341Z,12.10
2023-02-26T17:19:44.707Z,10.40
2023-02-26T17:22:16.472Z,8.10
2023-02-26T17:24:45.972Z,5.10
2023-02-26T17:27:29.876Z,3.30
2023-02-26T17:30:00.819Z,4.40
2023-02-26T17:32:31.392Z,4.30
2023-02-26T17:34:59.954Z,5.60
2023-02-26T17:37:36.097Z,6.80
2023-02-26T17:40:06.125Z,6.40
2023-02-26T17:42:34.481Z,5.40
2023-02-26T17:45:03.280Z,6.10
2023-02-26T17:47:32.272Z,7.40
2023-02-26T17:50:00.618Z,6.40
2023-02-26T17:52:28.880Z,5.70
2023-02-26T17:54:57.089Z,4.10
2023-02-26T17:57:27.360Z,4.10
2023-02-26T17:59:55.764Z,6.00
2023-02-26T18:02:27.079Z,7.10
2023-02-26T18:04:55.602Z,5.20
2023-02-26T18:07:25.176Z,7.20
2023-02-26T18:09:53.559Z,6.20
2023-02-26T18:12:22.710Z,4.50
2023-02-26T18:14:51.341Z,3.90
2023-02-26T18:17:24.378Z,4.90
2023-02-26T18:19:53.018Z,6.30
2023-02-26T18:22:27.713Z,4.00
2023-02-26T18:24:56.625Z,3.40
2023-02-26T18:27:26.782Z,8.40
2023-02-26T18:29:55.363Z,7.70
2023-02-26T18:32:27.965Z,6.60
2023-02-26T18:34:56.598Z,4.50
2023-02-26T18:37:27.344Z,8.70
2023-02-26T18:39:56.426Z,5.40
2023-02-26T18:42:28.673Z,4.20
2023-02-26T18:44:57.130Z,7.20
2023-02-26T18:47:25.449Z,7.00
2023-02-26T18:49:53.776Z,7.30
2023-02-26T18:52:22.049Z,9.50
2023-02-26T18:54:50.379Z,9.20
2023-02-26T18:57:18.743Z,6.20
2023-02-26T18:59:47.300Z,8.70
2023-02-26T19:02:15.487Z,9.80
2023-02-26T19:04:45.158Z,10.00
2023-02-26T19:07:14.699Z,7.00
2023-02-26T19:09:43.500Z,6.00
2023-02-26T19:12:17.800Z,5.30
2023-02-26T19:14:47.651Z,9.00
2023-02-26T19:17:16.308Z,9.20
2023-02-26T19:19:44.720Z,6.50
2023-02-26T19:22:14.716Z,5.20
2023-02-26T19:24:44.191Z,4.10
2023-02-26T19:27:14.205Z,5.30
2023-02-26T19:29:43.039Z,5.00
2023-02-26T19:32:11.464Z,5.60
2023-02-26T19:34:39.754Z,9.50
2023-02-26T19:37:09.349Z,9.40
2023-02-26T19:39:38.184Z,9.90
2023-02-26T19:42:06.431Z,10.70
2023-02-26T19:44:35.903Z,9.40
2023-02-26T19:47:04.288Z,10.10
2023-02-26T19:49:32.841Z,8.10
2023-02-26T19:52:01.180Z,9.20
2023-02-26T19:54:30.502Z,7.10
2023-02-26T19:56:58.887Z,4.80
2023-02-26T19:59:27.386Z,4.80
2023-02-26T20:01:55.651Z,6.60
2023-02-26T20:04:23.891Z,9.10
2023-02-26T20:06:52.108Z,5.50
2023-02-26T20:09:20.692Z,6.90
2023-02-26T20:11:49.226Z,5.50
2023-02-26T20:14:18.530Z,9.30
2023-02-26T20:16:47.321Z,10.00
2023-02-26T20:19:15.573Z,9.80
2023-02-26T20:21:43.949Z,9.80
2023-02-26T20:24:12.287Z,9.50
2023-02-26T20:26:40.743Z,9.10
2023-02-26T20:29:09.591Z,6.80
2023-02-26T20:31:37.915Z,4.80
2023-02-26T20:34:06.802Z,8.40
2023-02-26T20:36:35.274Z,5.20
2023-02-26T20:39:03.512Z,10.40
2023-02-26T20:41:32.387Z,8.00
2023-02-26T20:44:00.753Z,9.30
2023-02-26T20:46:30.990Z,9.30
2023-02-26T20:48:59.964Z,9.00
2023-02-26T20:51:28.710Z,8.00
2023-02-26T20:53:57.462Z,3.60
2023-02-26T20:56:26.386Z,5.80
2023-02-26T20:58:54.573Z,4.00
2023-02-26T21:01:22.941Z,6.00
2023-02-26T21:03:54.245Z,4.00
2023-02-26T21:06:24.115Z,8.30
2023-02-26T21:08:52.460Z,8.70
2023-02-26T21:11:20.914Z,7.90
2023-02-26T21:13:49.372Z,7.60
2023-02-26T21:16:17.876Z,4.90
2023-02-26T21:18:46.250Z,7.80
2023-02-26T21:21:14.553Z,11.60
2023-02-26T21:23:43.572Z,10.70
2023-02-26T21:26:12.157Z,10.60
2023-02-26T21:28:40.533Z,10.90
2023-02-26T21:31:08.948Z,13.10
2023-02-26T21:33:37.332Z,13.20
2023-02-26T21:36:07.543Z,10.90
2023-02-26T21:38:35.771Z,11.90
2023-02-26T21:41:05.070Z,11.50
2023-02-26T21:43:35.219Z,10.20
2023-02-26T21:46:07.398Z,10.50
2023-02-26T21:48:35.728Z,15.50
2023-02-26T21:51:04.635Z,13.00
2023-02-26T21:53:34.348Z,18.20
2023-02-26T21:56:03.123Z,26.50
2023-02-26T21:58:33.614Z,16.20
2023-02-26T22:01:02.398Z,14.50
2023-02-26T22:04:31.542Z,5.20
2023-02-26T22:07:20.226Z,7.70
2023-02-26T22:09:49.186Z,8.70
2023-02-26T22:12:22.479Z,9.70
2023-02-26T22:14:51.973Z,12.20
2023-02-26T22:17:22.459Z,20.50
2023-02-26T22:19:57.806Z,22.40
2023-02-26T22:22:31.837Z,21.70
2023-02-26T22:25:00.202Z,14.10
2023-02-26T22:27:29.469Z,9.40
2023-02-26T22:29:59.635Z,6.20
2023-02-26T22:32:28.727Z,12.40
2023-02-26T22:34:57.189Z,12.20
2023-02-26T22:37:25.671Z,12.90
2023-02-26T22:39:53.995Z,11.60
2023-02-26T22:42:22.873Z,10.10
2023-02-26T22:44:51.189Z,6.30
2023-02-26T22:47:19.595Z,10.60
2023-02-26T22:49:49.011Z,11.20
2023-02-26T22:52:17.207Z,10.40
2023-02-26T22:54:46.682Z,8.20
2023-02-26T22:57:15.058Z,7.30
2023-02-26T22:59:43.450Z,8.00
2023-02-26T23:02:11.635Z,2.40
2023-02-26T23:04:40.052Z,8.00
2023-02-26T23:07:08.595Z,7.90
2023-02-26T23:09:37.858Z,7.40
2023-02-26T23:12:06.093Z,8.60
2023-02-26T23:14:34.823Z,7.90
2023-02-26T23:17:04.346Z,7.30
2023-02-26T23:19:32.517Z,4.00
2023-02-26T23:22:01.536Z,3.80
2023-02-26T23:24:29.816Z,4.40
2023-02-26T23:26:58.466Z,4.80
2023-02-26T23:29:27.273Z,6.40
2023-02-26T23:31:55.841Z,3.30
2023-02-26T23:34:24.248Z,6.80
2023-02-26T23:36:52.397Z,3.20
2023-02-26T23:39:20.570Z,6.60
2023-02-26T23:41:49.027Z,8.20
2023-02-26T23:44:17.361Z,7.80
2023-02-26T23:46:45.775Z,6.30
2023-02-26T23:49:16.127Z,4.40
2023-02-26T23:51:46.053Z,4.20
2023-02-26T23:54:14.730Z,5.30
2023-02-26T23:56:42.883Z,3.80
2023-02-26T23:59:11.268Z,7.20
